Bei Facebook empfehlenBei Twitter postenGoogle plusPinterest

Das Wetter im Erzgebirge am 31.01.2016

Wetter und Klima am 31.01.2016 Holzhau im Erzgebirge (630m ü.NN)
Letzte gemessene Temperatur und Uhrzeit der Messung23:45:00 Uhr1.10 °C
Temperatur (Maximum / Höchstwert) und Uhrzeit der Messung01:00:00 Uhr1.80 °C
Temperatur (Minimum / Tiefstwert) und Uhrzeit der Messung05:15:00-2.80 °C
Errechneter Absolutwert der Temperaturschwankungen zwischen Tmin und Tmax des Tages4.60 K
Errechnete Tagesmitteltemperatur0.12396 °C
Gesamt - Niederschlag des Tages (in flüssiger Form)3.63 Liter / m²
Luftdruck (Maximum / Höchstwert) und Zeitpunkt der Messung12:45:00 Uhr1007.10 hPa
Luftdruck (Minimum / Tiefstwert) und Zeitpunkt der Messung00:30:00 Uhr1001.70 hPa
Errechneter Absolutwert der Luftdruckschwankungen des Tages5.40 hPa
Höchste gemessene Windgeschwindigkeit und Uhrzeit der Messung00:15:00 Uhr21.60 km/h
Errechnete Windhäufigkeit in Relation zu den Messwerten des Tages19.79167 %
Niedrigste Windkühle (Windchill) und Zeitpunkt der Messung00:15:00 Uhr-3.70 °C
Taupunkt (Maximum / Höchstwert) und Uhrzeit der Messung01:00:00 Uhr0.60 °C
Taupunkt (Minimum / Tiefstwert) und Uhrzeit der Messung05:15:00-3.90 °C
Anzahl der automatisch eingelesenen Messwerte 96

Detaillierte Wetter- und Klima- Messwerte für den 31.01.2016 in Holzhau im Erzgebirge (630m ü.NN)
ZeitTemperaturLuftdruckRel. LuftfeuchteWindWindrichtungWindchillTaupunktNiederschlag l/m²
23:45:001.10 °C1003.70 hPa91.00 %-0.20 °C3.63
23:30:001.20 °C1003.80 hPa91.00 %-0.10 °C3.11
23:15:001.30 °C1003.90 hPa91.00 %0.00 °C3.11
23:00:001.30 °C1004.00 hPa90.00 %-0.20 °C3.11
22:45:001.30 °C1004.00 hPa90.00 %1.44 km/hWSW1.30 °C-0.20 °C2.59
22:30:001.30 °C1004.30 hPa90.00 %4.68 km/hSW1.30 °C-0.20 °C2.59
22:15:001.20 °C1004.30 hPa90.00 %-0.30 °C2.59
22:00:001.10 °C1004.60 hPa90.00 %-0.40 °C2.59
21:45:000.90 °C1005.10 hPa90.00 %-0.50 °C2.59
21:30:000.60 °C1005.20 hPa90.00 %-0.80 °C2.59
21:15:000.30 °C1005.30 hPa89.00 %-1.30 °C2.59
21:00:000.40 °C1005.20 hPa89.00 %-1.20 °C2.59
20:45:000.50 °C1005.40 hPa89.00 %-1.10 °C2.59
20:30:000.40 °C1005.60 hPa89.00 %-1.20 °C2.59
20:15:000.30 °C1005.80 hPa89.00 %-1.30 °C2.59
20:00:000.30 °C1005.80 hPa89.00 %-1.30 °C2.59
19:45:000.30 °C1005.90 hPa89.00 %-1.30 °C2.59
19:30:000.40 °C1006.10 hPa88.00 %3.24 km/hSW0.40 °C-1.30 °C2.59
19:15:000.50 °C1006.20 hPa88.00 %-1.30 °C2.59
19:00:000.70 °C1006.40 hPa88.00 %-1.10 °C2.59
18:45:000.70 °C1006.40 hPa87.00 %5.40 km/hSSW-1.00 °C-1.20 °C2.59
18:30:000.70 °C1006.40 hPa87.00 %3.24 km/hSW0.70 °C-1.20 °C2.59
18:15:000.60 °C1006.60 hPa87.00 %9.36 km/hSW-2.40 °C-1.30 °C2.59
18:00:000.60 °C1006.20 hPa87.00 %-1.30 °C2.59
17:45:000.60 °C1006.30 hPa86.00 %2.88 km/hSSW0.60 °C-1.50 °C2.59
17:30:000.60 °C1006.30 hPa86.00 %7.56 km/hSW-1.90 °C-1.50 °C2.59
17:15:000.60 °C1006.40 hPa86.00 %5.04 km/hWSW-0.90 °C-1.50 °C2.59
17:00:000.80 °C1006.20 hPa86.00 %1.80 km/hWSW0.80 °C-1.30 °C2.59
16:45:000.80 °C1006.20 hPa86.00 %-1.30 °C2.59
16:30:000.90 °C1005.90 hPa86.00 %9.36 km/hWSW-2.10 °C-1.20 °C2.59
16:15:000.90 °C1005.90 hPa86.00 %7.92 km/hW-1.70 °C-1.20 °C2.59
16:00:001.10 °C1005.70 hPa86.00 %2.88 km/hSW1.10 °C-1.00 °C2.59
15:45:001.20 °C1006.10 hPa85.00 %1.80 km/hWSW1.20 °C-1.00 °C2.59
15:30:001.30 °C1006.30 hPa85.00 %7.20 km/hSW-1.00 °C-0.90 °C2.59
15:15:001.30 °C1006.10 hPa85.00 %-0.90 °C2.59
15:00:001.30 °C1006.30 hPa85.00 %-0.90 °C2.59
14:45:001.30 °C1006.40 hPa85.00 %-0.90 °C2.59
14:30:001.30 °C1006.60 hPa85.00 %-0.90 °C2.59
14:15:001.30 °C1006.70 hPa85.00 %-0.90 °C2.08
14:00:001.30 °C1006.60 hPa85.00 %-0.90 °C2.08
13:45:001.40 °C1006.70 hPa85.00 %-0.80 °C2.08
13:30:001.30 °C1006.70 hPa86.00 %-0.80 °C2.08
13:15:001.30 °C1006.90 hPa86.00 %-0.80 °C2.08
13:00:001.30 °C1006.90 hPa87.00 %-0.60 °C2.08
12:45:001.20 °C1007.10 hPa87.00 %-0.70 °C1.56
12:30:000.90 °C1006.90 hPa87.00 %-1.00 °C1.56
12:15:000.80 °C1007.00 hPa88.00 %-1.00 °C1.56
12:00:000.80 °C1007.00 hPa88.00 %-1.00 °C1.56
11:45:000.80 °C1006.70 hPa89.00 %-0.80 °C1.56
11:30:000.90 °C1007.00 hPa89.00 %-0.70 °C1.56
11:15:000.90 °C1007.00 hPa90.00 %-0.50 °C1.56
11:00:000.60 °C1007.10 hPa90.00 %-0.80 °C1.56
10:45:000.40 °C1006.90 hPa91.00 %-0.90 °C1.56
10:30:000.30 °C1006.90 hPa92.00 %-0.80 °C1.56
10:15:00-0.10 °C1007.00 hPa92.00 %-1.40 °C1.56
10:00:00-0.20 °C1006.80 hPa92.00 %-1.50 °C1.56
09:45:00-0.50 °C1006.90 hPa92.00 %-1.80 °C1.56
09:30:00-0.60 °C1006.70 hPa92.00 %-1.90 °C1.56
09:15:00-0.70 °C1006.90 hPa92.00 %-2.00 °C1.56
09:00:00-0.80 °C1006.70 hPa92.00 %-2.10 °C1.56
08:45:00-1.00 °C1006.60 hPa92.00 %-2.30 °C1.56
08:30:00-1.10 °C1006.30 hPa92.00 %-2.40 °C1.56
08:15:00-1.10 °C1006.20 hPa93.00 %-2.20 °C1.56
08:00:00-1.10 °C1006.20 hPa93.00 %-2.20 °C1.56
07:45:00-1.20 °C1006.10 hPa93.00 %-2.30 °C1.56
07:30:00-1.30 °C1005.90 hPa93.00 %-2.40 °C1.56
07:15:00-1.40 °C1006.10 hPa93.00 %-2.50 °C1.56
07:00:00-1.60 °C1006.20 hPa93.00 %-2.70 °C1.56
06:45:00-1.70 °C1006.20 hPa93.00 %-2.80 °C1.56
06:30:00-1.80 °C1006.00 hPa93.00 %-2.90 °C1.56
06:15:00-2.10 °C1005.90 hPa93.00 %-3.20 °C1.56
06:00:00-2.40 °C1005.80 hPa93.00 %-3.50 °C1.56
05:45:00-2.40 °C1005.70 hPa93.00 %-3.50 °C1.56
05:30:00-2.70 °C1005.60 hPa93.00 %-3.80 °C1.56
05:15:00-2.80 °C1005.30 hPa93.00 %-3.90 °C1.56
05:00:00-2.70 °C1005.20 hPa93.00 %-3.80 °C1.56
04:45:00-2.40 °C1005.00 hPa93.00 %-3.50 °C1.56
04:30:00-2.00 °C1004.80 hPa93.00 %-3.10 °C1.56
04:15:00-1.50 °C1004.80 hPa93.00 %-2.60 °C1.56
04:00:00-1.20 °C1005.00 hPa93.00 %-2.30 °C1.56
03:45:00-1.10 °C1005.10 hPa93.00 %-2.20 °C1.56
03:30:00-1.10 °C1005.10 hPa93.00 %-2.20 °C1.56
03:15:00-1.00 °C1005.20 hPa93.00 %-2.10 °C1.56
03:00:00-0.90 °C1005.10 hPa93.00 %-2.00 °C1.56
02:45:00-0.80 °C1005.00 hPa93.00 %-1.90 °C1.56
02:30:00-0.70 °C1004.80 hPa93.00 %-1.80 °C1.56
02:15:00-0.50 °C1004.30 hPa93.00 %-1.60 °C1.56
02:00:00-0.20 °C1004.20 hPa93.00 %-1.30 °C1.56
01:45:00-0.10 °C1004.00 hPa92.00 %-1.40 °C1.56
01:30:000.40 °C1003.40 hPa92.00 %-0.70 °C1.56
01:15:001.40 °C1002.70 hPa92.00 %7.92 km/hWNW-1.10 °C0.20 °C1.56
01:00:001.80 °C1001.90 hPa92.00 %10.44 km/hWNW-1.30 °C0.60 °C1.04
00:45:001.60 °C1001.90 hPa92.00 %6.12 km/hW-0.20 °C0.40 °C1.04
00:30:001.60 °C1001.70 hPa92.00 %0.40 °C0.52
00:15:001.40 °C1001.80 hPa92.00 %21.60 km/hWSW-3.70 °C0.20 °C 
00:00:001.00 °C1002.10 hPa91.00 %-0.30 °C 

Permanenter Link zu dieser Seite: Wetter im Erzgebirge am 31.01.2016
Performance-Info: Die Erstellung der Seite / Statistik(en) / Tabelle(n) erforderte 5 Datenbankserver-Abfrage(n) und dauerte 69 Millisekunden. (Dieser Messwert ist von der Gesamt-Auslastung des Servers abhängig.)
Erzgebirge - Wetter | Erzgebirge - Wetter (Mobilgeräte) | Komplette Klimadatenbank